Airfield :
LOGIN :

Register | Disclaimer

   EN    FR    IT 

 










Legend :    VFR   Marginal VFR   IFR   Intensive IFR   Very Intensive IFR
Visi :
Ceiling :
>= 8 km
>= 3000ft
5 to 8 km
1000 to 3000 ft
1500m to 5 km
500 to 1000 ft
800 to 1500m
200 to 500 ft
< 800m
< 200 ft
Symbols :   Thunderstorms  Fog  Heavy snow  Heavy precipitations  Wind > 20 kt
SIGMETs :     Misc.  Thunderstorms  Icing  Turbulence  Mountain Waves  Volcanic Ashes






- Airport Elevation : 204 ft
- IATA code : KSU


ENKB - Kristiansund , Kvernberget

CURRENT METAR :
  • 302020Z AUTO 25015KT 9999 FEW014/// OVC064/// 04/01 Q1026 RMK WIND 745FT 24023KT

EXPIRED METARs :
  • 301950Z AUTO 24014KT 9999 BKN013/// OVC064/// 03/01 Q1026 RMK WIND 745FT 24024KT
  • 301920Z 24014KT 9999 SCT013 BKN016 03/00 Q1026 RMK WIND 745FT 24023KT
  • 301850Z 24015KT 9999 FEW011 SCT032 BKN062 03/M00 Q1027 RMK WIND 745FT 24024KT
  • 301820Z 24015KT 9999 VCSH SCT015 BKN055 02/M00 Q1027 RMK WIND 745FT 24024KT
  • 301750Z 24015KT 9999 -RA SCT016 BKN029 02/M01 Q1027 RMK WIND 745FT 24024KT

Expired Forecast.



MET'MAP, your aeronautical weather chart ! - Copyright ORBIFLY December 2007 - Disclaimer

ORBIFLY MET'MAP TEAM :

Programming & Development : Alexandra Zaïnal
Concept & original design : Baudouin d'Aumeries
Assistance for programming : Marc-Olivier Méhu
Technical & hardware support : Manuel Goepfert

Contact : metmap@orbifly.com




SOURCES & CREDITS :

   NOAA